createdAt,value
2019-04-25T00:00:02.044Z,68.77
2019-04-25T00:01:01.203Z,68.67
2019-04-25T00:02:01.860Z,68.74
2019-04-25T00:03:01.267Z,69.07
2019-04-25T00:04:02.010Z,69.04
2019-04-25T00:05:01.361Z,69.04
2019-04-25T00:06:02.360Z,68.94
2019-04-25T00:07:02.238Z,69.07
2019-04-25T00:08:01.502Z,68.94
2019-04-25T00:09:01.887Z,68.94
2019-04-25T00:10:01.605Z,68.67
2019-04-25T00:11:01.711Z,68.74
2019-04-25T00:12:02.273Z,69.14
2019-04-25T00:13:01.691Z,69.14
2019-04-25T00:14:01.546Z,69.58
2019-04-25T00:15:01.431Z,69.45
2019-04-25T00:16:01.844Z,69.24
2019-04-25T00:17:01.721Z,69.14
2019-04-25T00:18:02.250Z,69.14
2019-04-25T00:19:01.889Z,68.84
2019-04-25T00:20:01.595Z,69.27
2019-04-25T00:21:01.281Z,68.94
2019-04-25T00:22:01.977Z,69.04
2019-04-25T00:23:02.008Z,68.94
2019-04-25T00:24:02.535Z,68.63
2019-04-25T00:25:12.955Z,68.84
2019-04-25T00:26:01.797Z,68.67
2019-04-25T00:27:02.207Z,68.74
2019-04-25T00:28:01.803Z,68.84
2019-04-25T00:29:01.972Z,68.77
2019-04-25T00:30:01.680Z,68.47
2019-04-25T00:31:02.115Z,69.68
2019-04-25T00:32:01.676Z,69.27
2019-04-25T00:33:02.055Z,70.39
2019-04-25T00:34:02.185Z,70.49
2019-04-25T00:35:01.870Z,71.20
2019-04-25T00:36:02.059Z,70.79
2019-04-25T00:37:02.369Z,71.80
2019-04-25T00:38:02.270Z,72.04
2019-04-25T00:39:02.019Z,72.01
2019-04-25T00:40:01.487Z,72.14
2019-04-25T00:41:01.701Z,72.55
2019-04-25T00:42:02.183Z,71.94
2019-04-25T00:43:01.583Z,72.55
2019-04-25T00:44:02.296Z,72.04
2019-04-25T00:45:02.209Z,72.65
2019-04-25T00:46:01.493Z,72.44
2019-04-25T00:47:02.295Z,72.75
2019-04-25T00:48:03.946Z,73.29
2019-04-25T00:49:00.551Z,73.19
2019-04-25T00:50:02.157Z,71.97
2019-04-25T00:51:01.919Z,72.99
2019-04-25T00:52:01.927Z,73.09
2019-04-25T00:53:01.211Z,72.38
2019-04-25T00:54:02.356Z,72.88
2019-04-25T00:55:01.900Z,72.38
2019-04-25T00:56:01.482Z,72.48
2019-04-25T00:57:02.081Z,72.17
2019-04-25T00:58:01.356Z,72.08
2019-04-25T00:59:01.970Z,72.28
2019-04-25T01:00:01.857Z,72.68
2019-04-25T01:01:02.025Z,72.28
2019-04-25T01:02:01.464Z,72.28
2019-04-25T01:03:01.614Z,73.22
2019-04-25T01:04:01.952Z,72.88
2019-04-25T01:05:01.815Z,73.02
2019-04-25T01:06:03.387Z,73.12
2019-04-25T01:07:01.480Z,73.02
2019-04-25T01:08:02.038Z,73.43
2019-04-25T01:09:01.545Z,73.43
2019-04-25T01:10:02.003Z,73.63
2019-04-25T01:11:01.668Z,73.22
2019-04-25T01:12:03.890Z,73.22
2019-04-25T01:13:01.375Z,73.73
2019-04-25T01:14:01.730Z,73.93
2019-04-25T01:15:01.642Z,73.43
2019-04-25T01:16:02.128Z,73.93
2019-04-25T01:17:01.717Z,73.83
2019-04-25T01:18:01.221Z,73.83
2019-04-25T01:19:00.310Z,73.73
2019-04-25T01:20:00.212Z,73.73
2019-04-25T01:21:00.194Z,73.83
2019-04-25T01:22:00.181Z,73.90
2019-04-25T01:23:00.938Z,74.24
2019-04-25T01:24:00.167Z,74.24
2019-04-25T01:25:00.140Z,74.13
2019-04-25T01:26:00.176Z,74.24
2019-04-25T01:27:00.123Z,74.24
2019-04-25T01:28:00.127Z,74.13
2019-04-25T01:29:00.128Z,74.44
2019-04-25T01:30:00.093Z,74.33
2019-04-25T01:31:00.071Z,74.13
2019-04-25T01:32:00.070Z,74.24
2019-04-25T01:33:00.070Z,74.24
2019-04-25T01:34:00.073Z,74.44
2019-04-25T01:35:00.458Z,74.13
2019-04-25T01:36:00.020Z,74.13
2019-04-25T01:37:00.016Z,74.33
2019-04-25T01:38:00.003Z,74.13
2019-04-25T01:39:00.012Z,74.54
2019-04-25T01:39:59.979Z,74.10
2019-04-25T01:41:00.001Z,74.40
2019-04-25T01:41:59.958Z,74.13
2019-04-25T01:42:59.937Z,74.40
2019-04-25T01:43:59.949Z,74.24
2019-04-25T01:44:59.910Z,74.74
2019-04-25T01:45:59.910Z,74.74
2019-04-25T01:46:59.910Z,74.74
2019-04-25T01:47:59.890Z,74.74
2019-04-25T01:48:59.890Z,74.64
2019-04-25T01:49:59.863Z,74.74
2019-04-25T01:50:59.860Z,74.74
2019-04-25T01:51:59.852Z,74.71
2019-04-25T01:52:59.849Z,74.64
2019-04-25T01:53:59.845Z,75.55
2019-04-25T01:54:59.798Z,75.96
2019-04-25T01:56:05.030Z,75.96
2019-04-25T01:57:00.795Z,76.26
2019-04-25T01:57:59.771Z,78.19
2019-04-25T01:59:01.516Z,77.98
2019-04-25T01:59:59.785Z,77.78
2019-04-25T02:00:59.746Z,77.78
2019-04-25T02:01:59.744Z,77.78
2019-04-25T02:02:59.713Z,77.78
2019-04-25T02:03:59.730Z,77.98
2019-04-25T02:05:00.265Z,77.48
2019-04-25T02:05:59.731Z,78.08
2019-04-25T02:06:59.669Z,77.98
2019-04-25T02:07:59.678Z,78.69
2019-04-25T02:08:59.651Z,78.39
2019-04-25T02:09:59.659Z,79.00
2019-04-25T02:10:59.640Z,79.00
2019-04-25T02:11:59.627Z,78.89
2019-04-25T02:12:59.910Z,79.10
2019-04-25T02:13:59.609Z,79.71
2019-04-25T02:14:59.937Z,79.40
2019-04-25T02:15:59.578Z,79.60
2019-04-25T02:17:00.312Z,79.60
2019-04-25T02:18:00.357Z,79.50
2019-04-25T02:18:59.839Z,80.11
2019-04-25T02:19:59.795Z,80.11
2019-04-25T02:21:01.373Z,80.72
2019-04-25T02:21:59.904Z,80.21
2019-04-25T02:23:00.006Z,80.01
2019-04-25T02:24:00.184Z,80.41
2019-04-25T02:25:00.269Z,80.21
2019-04-25T02:26:13.883Z,81.32
2019-04-25T02:27:00.843Z,81.23
2019-04-25T02:28:01.454Z,82.14
2019-04-25T02:28:59.430Z,82.14
2019-04-25T02:29:59.438Z,82.24
2019-04-25T02:31:02.275Z,82.14
2019-04-25T02:32:02.852Z,81.73
2019-04-25T02:33:04.388Z,81.83
2019-04-25T02:34:03.075Z,81.93
2019-04-25T02:35:02.704Z,81.77
2019-04-25T02:36:02.592Z,82.14
2019-04-25T02:37:03.963Z,82.14
2019-04-25T02:38:02.417Z,81.93
2019-04-25T02:39:01.666Z,82.44
2019-04-25T02:40:01.636Z,82.03
2019-04-25T02:41:01.962Z,81.83
2019-04-25T02:42:01.148Z,82.14
2019-04-25T02:43:01.698Z,82.03
2019-04-25T02:44:02.975Z,81.63
2019-04-25T02:45:02.306Z,81.63
2019-04-25T02:46:00.505Z,81.83
2019-04-25T02:47:00.976Z,81.93
2019-04-25T02:47:59.709Z,81.97
2019-04-25T02:49:01.381Z,82.14
2019-04-25T02:50:00.836Z,82.07
2019-04-25T02:50:59.714Z,81.83
2019-04-25T02:52:00.766Z,81.83
2019-04-25T02:52:59.818Z,81.87
2019-04-25T02:53:59.715Z,82.07
2019-04-25T02:55:00.422Z,81.77
2019-04-25T02:55:59.743Z,82.28
2019-04-25T02:56:59.953Z,82.28
2019-04-25T02:58:00.309Z,82.78
2019-04-25T02:59:00.172Z,82.48
2019-04-25T03:00:00.158Z,82.68
2019-04-25T03:01:09.378Z,82.78
2019-04-25T03:02:00.724Z,82.78
2019-04-25T03:02:59.224Z,82.98
2019-04-25T03:03:59.482Z,83.23
2019-04-25T03:04:59.700Z,82.98
2019-04-25T03:05:59.559Z,83.59
2019-04-25T03:07:00.125Z,83.29
2019-04-25T03:07:59.868Z,83.59
2019-04-25T03:09:00.265Z,83.49
2019-04-25T03:09:59.563Z,83.69
2019-04-25T03:10:59.854Z,83.43
2019-04-25T03:11:59.929Z,83.03
2019-04-25T03:13:00.245Z,83.29
2019-04-25T03:14:00.397Z,83.12
2019-04-25T03:15:00.134Z,82.89
2019-04-25T03:16:00.441Z,82.89
2019-04-25T03:17:00.335Z,82.68
2019-04-25T03:17:59.869Z,82.38
2019-04-25T03:18:59.375Z,82.38
2019-04-25T03:19:59.855Z,82.38
2019-04-25T03:20:59.742Z,82.17
2019-04-25T03:22:00.265Z,81.67
2019-04-25T03:23:00.048Z,81.46
2019-04-25T03:23:59.953Z,81.46
2019-04-25T03:25:00.319Z,81.37
2019-04-25T03:25:59.215Z,81.26
2019-04-25T03:26:59.398Z,81.16
2019-04-25T03:27:59.538Z,81.37
2019-04-25T03:28:58.816Z,81.67
2019-04-25T03:29:59.632Z,81.16
2019-04-25T03:31:01.411Z,81.06
2019-04-25T03:31:58.757Z,80.96
2019-04-25T03:32:58.725Z,80.76
2019-04-25T03:33:58.712Z,80.45
2019-04-25T03:34:58.707Z,80.45
2019-04-25T03:35:58.693Z,79.85
2019-04-25T03:36:58.700Z,80.25
2019-04-25T03:37:58.669Z,80.65
2019-04-25T03:38:58.655Z,80.76
2019-04-25T03:39:58.655Z,80.45
2019-04-25T03:40:58.638Z,79.85
2019-04-25T03:41:58.646Z,80.25
2019-04-25T03:42:58.657Z,80.76
2019-04-25T03:43:58.594Z,80.15
2019-04-25T03:44:58.583Z,80.25
2019-04-25T03:45:58.579Z,80.05
2019-04-25T03:46:58.594Z,80.76
2019-04-25T03:47:58.572Z,80.65
2019-04-25T03:48:58.545Z,80.05
2019-04-25T03:49:58.544Z,80.15
2019-04-25T03:50:58.524Z,80.19
2019-04-25T03:51:58.529Z,80.69
2019-04-25T03:52:58.499Z,80.19
2019-04-25T03:53:58.503Z,80.08
2019-04-25T03:54:58.480Z,80.02
2019-04-25T03:55:58.485Z,81.30
2019-04-25T03:56:58.487Z,80.93
2019-04-25T03:57:58.465Z,81.13
2019-04-25T03:58:58.435Z,81.04
2019-04-25T03:59:58.425Z,80.93
2019-04-25T04:00:58.418Z,81.18
2019-04-25T04:02:01.075Z,81.85
2019-04-25T04:02:58.388Z,81.34
2019-04-25T04:03:58.394Z,81.58
2019-04-25T04:04:58.384Z,81.38
2019-04-25T04:05:58.353Z,81.78
2019-04-25T04:06:58.365Z,82.09
2019-04-25T04:07:58.336Z,82.29
2019-04-25T04:08:58.332Z,82.59
2019-04-25T04:09:58.313Z,82.39
2019-04-25T04:10:58.319Z,83.00
2019-04-25T04:11:58.299Z,82.80
2019-04-25T04:12:58.290Z,82.64
2019-04-25T04:13:58.271Z,82.64
2019-04-25T04:14:58.245Z,83.34
2019-04-25T04:15:58.236Z,83.40
2019-04-25T04:16:58.244Z,82.90
2019-04-25T04:17:58.216Z,83.14
2019-04-25T04:18:58.229Z,83.75
2019-04-25T04:19:58.216Z,83.65
2019-04-25T04:20:58.203Z,83.54
2019-04-25T04:21:58.212Z,83.65
2019-04-25T04:22:58.155Z,83.65
2019-04-25T04:23:58.145Z,83.75
2019-04-25T04:24:58.132Z,83.75
2019-04-25T04:25:58.151Z,83.54
2019-04-25T04:27:03.692Z,83.34
2019-04-25T04:27:59.110Z,83.34
2019-04-25T04:28:58.112Z,82.64
2019-04-25T04:29:58.086Z,83.04
2019-04-25T04:30:58.083Z,82.23
2019-04-25T04:31:58.093Z,82.43
2019-04-25T04:32:58.049Z,81.52
2019-04-25T04:33:58.055Z,81.41
2019-04-25T04:34:58.047Z,81.52
2019-04-25T04:35:58.010Z,81.72
2019-04-25T04:36:58.029Z,81.41
2019-04-25T04:37:57.997Z,81.62
2019-04-25T04:38:57.993Z,81.01
2019-04-25T04:39:57.991Z,81.35
2019-04-25T04:40:57.971Z,81.62
2019-04-25T04:41:57.975Z,80.40
2019-04-25T04:42:57.953Z,80.33
2019-04-25T04:43:57.946Z,80.84
2019-04-25T04:44:57.933Z,80.24
2019-04-25T04:45:57.920Z,80.13
2019-04-25T04:46:57.916Z,80.44
2019-04-25T04:47:57.894Z,80.33
2019-04-25T04:48:57.867Z,79.63
2019-04-25T04:49:57.855Z,79.52
2019-04-25T04:50:57.868Z,79.63
2019-04-25T04:51:57.871Z,79.22
2019-04-25T04:52:57.869Z,78.37
2019-04-25T04:53:57.829Z,77.86
2019-04-25T04:55:06.244Z,78.06
2019-04-25T04:55:58.795Z,76.10
2019-04-25T04:56:57.783Z,76.20
2019-04-25T04:57:57.804Z,76.06
2019-04-25T04:58:57.770Z,74.77
2019-04-25T04:59:57.764Z,74.48
2019-04-25T05:00:57.765Z,72.08
2019-04-25T05:01:57.727Z,71.60
2019-04-25T05:02:57.746Z,70.69
2019-04-25T05:03:57.720Z,70.05
2019-04-25T05:04:57.704Z,68.40
2019-04-25T05:05:57.716Z,67.53
2019-04-25T05:06:57.674Z,65.65
2019-04-25T05:07:57.678Z,64.21
2019-04-25T05:08:57.647Z,63.14
2019-04-25T05:09:57.643Z,62.30
2019-04-25T05:10:57.640Z,61.17
2019-04-25T05:11:57.638Z,60.53
2019-04-25T05:12:57.629Z,59.70
2019-04-25T05:13:57.596Z,58.57
2019-04-25T05:14:57.601Z,57.77
2019-04-25T05:15:57.570Z,56.74
2019-04-25T05:16:57.562Z,57.21
2019-04-25T05:17:57.580Z,56.48
2019-04-25T05:18:57.541Z,55.65
2019-04-25T05:19:57.527Z,55.45
2019-04-25T05:20:57.515Z,54.22
2019-04-25T05:21:57.498Z,54.50
2019-04-25T05:22:57.532Z,53.00
2019-04-25T05:23:57.488Z,52.07
2019-04-25T05:24:57.472Z,52.14
2019-04-25T05:25:57.480Z,52.02
2019-04-25T05:26:57.442Z,52.47
2019-04-25T05:28:02.519Z,51.25
2019-04-25T05:28:58.452Z,52.82
2019-04-25T05:29:57.418Z,52.67
2019-04-25T05:30:57.420Z,51.42
2019-04-25T05:31:57.403Z,49.57
2019-04-25T05:32:57.385Z,49.02
2019-04-25T05:33:57.383Z,48.97
2019-04-25T05:34:57.375Z,47.63
2019-04-25T05:35:57.356Z,47.11
2019-04-25T05:36:57.349Z,46.00
2019-04-25T05:37:57.338Z,45.15
2019-04-25T05:38:57.340Z,43.62
2019-04-25T05:39:57.320Z,43.30
2019-04-25T05:40:57.313Z,42.19
2019-04-25T05:41:57.288Z,41.99
2019-04-25T05:42:57.281Z,42.57
2019-04-25T05:43:57.300Z,41.04
2019-04-25T05:44:57.254Z,40.42
2019-04-25T05:45:57.255Z,39.81
2019-04-25T05:46:57.228Z,39.69
2019-04-25T05:47:57.227Z,39.40
2019-04-25T05:48:57.248Z,38.88
2019-04-25T05:49:57.216Z,37.77
2019-04-25T05:50:57.180Z,37.46
2019-04-25T05:51:57.178Z,37.16
2019-04-25T05:52:57.192Z,36.46
2019-04-25T05:53:57.160Z,36.83
2019-04-25T05:54:57.149Z,35.64
2019-04-25T05:55:57.151Z,36.44
2019-04-25T05:56:57.132Z,35.85
2019-04-25T05:57:57.115Z,35.33
2019-04-25T05:58:57.149Z,35.52
2019-04-25T05:59:57.084Z,35.30
2019-04-25T06:00:57.080Z,33.80
2019-04-25T06:01:57.071Z,34.51
2019-04-25T06:02:57.068Z,33.53
2019-04-25T06:03:57.295Z,34.31
2019-04-25T06:04:57.058Z,34.53
2019-04-25T06:05:57.035Z,34.03
2019-04-25T06:06:57.029Z,34.74
2019-04-25T06:07:57.031Z,35.47
2019-04-25T06:08:57.001Z,35.28
2019-04-25T06:09:57.010Z,35.27
2019-04-25T06:10:56.968Z,35.35
2019-04-25T06:11:56.965Z,33.94
2019-04-25T06:12:56.949Z,34.01
2019-04-25T06:13:56.964Z,32.84
2019-04-25T06:14:56.940Z,33.03
2019-04-25T06:15:56.921Z,33.84
2019-04-25T06:16:56.912Z,34.46
2019-04-25T06:17:56.906Z,35.19
2019-04-25T06:18:56.899Z,36.13
2019-04-25T06:19:56.896Z,36.80
2019-04-25T06:20:56.881Z,35.38
2019-04-25T06:21:56.859Z,35.60
2019-04-25T06:22:56.843Z,34.38
2019-04-25T06:23:56.828Z,34.15
2019-04-25T06:24:56.828Z,32.85
2019-04-25T06:25:56.812Z,31.93
2019-04-25T06:26:56.798Z,32.93
2019-04-25T06:27:59.078Z,33.04
2019-04-25T06:28:59.567Z,33.80
2019-04-25T06:29:59.142Z,36.64
2019-04-25T06:30:56.749Z,37.77
2019-04-25T06:32:06.007Z,36.52
2019-04-25T06:32:57.737Z,36.92
2019-04-25T06:33:56.720Z,36.96
2019-04-25T06:34:56.742Z,38.28
2019-04-25T06:35:56.958Z,36.94
2019-04-25T06:36:56.692Z,36.13
2019-04-25T06:37:56.676Z,34.91
2019-04-25T06:38:56.673Z,34.59
2019-04-25T06:39:56.653Z,35.40
2019-04-25T06:40:56.674Z,36.46
2019-04-25T06:41:56.647Z,38.30
2019-04-25T06:42:56.622Z,38.20
2019-04-25T06:43:56.605Z,37.96
2019-04-25T06:44:56.626Z,36.52
2019-04-25T06:45:56.587Z,35.60
2019-04-25T06:46:56.590Z,34.00
2019-04-25T06:47:56.573Z,34.06
2019-04-25T06:48:56.571Z,33.98
2019-04-25T06:49:56.591Z,32.87
2019-04-25T06:50:56.535Z,34.18
2019-04-25T06:51:56.520Z,34.00
2019-04-25T06:52:56.521Z,33.77
2019-04-25T06:53:56.510Z,33.80
2019-04-25T06:54:56.521Z,34.28
2019-04-25T06:55:56.510Z,34.22
2019-04-25T06:56:56.505Z,35.42
2019-04-25T06:58:08.894Z,35.46
2019-04-25T06:58:57.524Z,34.79
2019-04-25T06:59:56.452Z,32.78
2019-04-25T07:01:00.191Z,32.24
2019-04-25T07:01:56.462Z,31.41
2019-04-25T07:02:56.415Z,31.07
2019-04-25T07:03:56.402Z,29.79
2019-04-25T07:04:56.390Z,30.91
2019-04-25T07:05:56.415Z,32.01
2019-04-25T07:06:56.373Z,31.73
2019-04-25T07:07:56.367Z,31.28
2019-04-25T07:08:56.348Z,30.30
2019-04-25T07:09:56.360Z,29.72
2019-04-25T07:10:56.355Z,30.21
2019-04-25T07:11:56.322Z,30.49
2019-04-25T07:12:56.312Z,29.16
2019-04-25T07:13:56.299Z,27.84
2019-04-25T07:14:56.283Z,26.53
2019-04-25T07:15:56.286Z,25.81
2019-04-25T07:16:56.251Z,24.91
2019-04-25T07:17:56.254Z,23.90
2019-04-25T07:18:56.252Z,24.18
2019-04-25T07:19:56.249Z,23.18
2019-04-25T07:20:56.251Z,22.69
2019-04-25T07:21:56.242Z,22.97
2019-04-25T07:22:56.216Z,23.07
2019-04-25T07:23:56.208Z,23.51
2019-04-25T07:24:56.190Z,24.53
2019-04-25T07:25:56.216Z,24.82
2019-04-25T07:26:56.161Z,24.30
2019-04-25T07:27:56.146Z,23.22
2019-04-25T07:28:56.145Z,23.40
2019-04-25T07:29:56.140Z,22.61
2019-04-25T07:30:56.148Z,22.69
2019-04-25T07:31:56.114Z,22.09
2019-04-25T07:32:56.108Z,21.79
2019-04-25T07:33:56.097Z,21.59
2019-04-25T07:34:56.078Z,20.71
2019-04-25T07:35:57.067Z,20.90
2019-04-25T07:36:56.076Z,20.99
2019-04-25T07:37:56.039Z,20.68
2019-04-25T07:39:05.762Z,21.16
2019-04-25T07:39:57.029Z,19.99
2019-04-25T07:40:56.012Z,19.99
2019-04-25T07:41:56.014Z,19.40
2019-04-25T07:42:56.005Z,20.68
2019-04-25T07:43:55.995Z,19.42
2019-04-25T07:44:56.006Z,19.12
2019-04-25T07:45:55.974Z,19.11
2019-04-25T07:46:55.979Z,19.11
2019-04-25T07:47:56.004Z,18.91
2019-04-25T07:48:55.938Z,19.10
2019-04-25T07:49:55.942Z,19.29
2019-04-25T07:50:55.920Z,18.61
2019-04-25T07:51:55.925Z,19.38
2019-04-25T07:52:55.904Z,18.62
2019-04-25T07:53:55.902Z,19.48
2019-04-25T07:54:55.870Z,19.09
2019-04-25T07:55:55.860Z,18.73
2019-04-25T07:56:55.880Z,20.32
2019-04-25T07:57:55.846Z,20.75
2019-04-25T07:58:55.841Z,21.15
2019-04-25T07:59:55.816Z,21.85
2019-04-25T08:00:55.814Z,21.36
2019-04-25T08:01:55.816Z,21.15
2019-04-25T08:02:55.810Z,21.77
2019-04-25T08:03:55.798Z,21.17
2019-04-25T08:04:55.871Z,21.64
2019-04-25T08:05:55.777Z,21.55
2019-04-25T08:06:55.822Z,20.84
2019-04-25T08:07:55.742Z,20.54
2019-04-25T08:08:55.733Z,20.62
2019-04-25T08:09:55.754Z,20.12
2019-04-25T08:10:55.725Z,20.30
2019-04-25T08:11:55.755Z,19.32
2019-04-25T08:12:55.714Z,20.31
2019-04-25T08:13:55.687Z,19.73
2019-04-25T08:14:55.695Z,20.00
2019-04-25T08:15:55.677Z,19.60
2019-04-25T08:16:55.712Z,18.71
2019-04-25T08:17:55.657Z,18.41
2019-04-25T08:18:55.646Z,18.40
2019-04-25T08:19:55.630Z,18.49
2019-04-25T08:20:55.625Z,17.79
2019-04-25T08:21:55.606Z,17.21
2019-04-25T08:22:58.437Z,17.40
2019-04-25T08:23:55.594Z,16.43
2019-04-25T08:24:55.594Z,16.71
2019-04-25T08:25:55.587Z,16.71
2019-04-25T08:26:55.576Z,17.78
2019-04-25T08:27:55.573Z,17.42
2019-04-25T08:28:57.712Z,17.44
2019-04-25T08:29:55.554Z,18.04
2019-04-25T08:30:55.517Z,19.01
2019-04-25T08:31:55.531Z,18.91
2019-04-25T08:32:55.513Z,19.31
2019-04-25T08:33:55.488Z,19.52
2019-04-25T08:34:55.496Z,20.01
2019-04-25T08:36:04.432Z,20.31
2019-04-25T08:36:56.492Z,19.12
2019-04-25T08:37:55.465Z,18.71
2019-04-25T08:38:55.440Z,18.32
2019-04-25T08:39:55.437Z,19.02
2019-04-25T08:40:55.796Z,20.04
2019-04-25T08:41:55.411Z,20.26
2019-04-25T08:42:55.423Z,19.56
2019-04-25T08:43:55.408Z,20.25
2019-04-25T08:44:55.386Z,20.75
2019-04-25T08:45:55.381Z,21.25
2019-04-25T08:46:55.386Z,20.77
2019-04-25T08:47:55.383Z,21.17
2019-04-25T08:48:55.365Z,21.07
2019-04-25T08:49:55.346Z,21.55
2019-04-25T08:50:55.322Z,21.14
2019-04-25T08:51:55.820Z,20.76
2019-04-25T08:52:55.347Z,22.13
2019-04-25T08:53:55.302Z,22.23
2019-04-25T08:54:57.467Z,21.14
2019-04-25T08:55:55.289Z,20.83
2019-04-25T08:56:55.277Z,20.42
2019-04-25T08:57:55.302Z,20.62
2019-04-25T08:59:04.004Z,20.64
2019-04-25T08:59:56.239Z,20.75
2019-04-25T09:01:00.888Z,21.33
2019-04-25T09:01:56.223Z,21.03
2019-04-25T09:02:55.236Z,21.04
2019-04-25T09:03:55.201Z,19.94
2019-04-25T09:04:55.180Z,19.83
2019-04-25T09:05:55.216Z,20.01
2019-04-25T09:06:55.182Z,19.40
2019-04-25T09:07:55.173Z,19.11
2019-04-25T09:08:55.170Z,18.71
2019-04-25T09:09:55.163Z,18.88
2019-04-25T09:10:55.138Z,19.28
2019-04-25T09:11:55.125Z,19.04
2019-04-25T09:12:55.117Z,20.34
2019-04-25T09:13:55.135Z,21.55
2019-04-25T09:14:55.090Z,22.24
2019-04-25T09:15:55.094Z,21.86
2019-04-25T09:16:55.096Z,22.74
2019-04-25T09:17:55.075Z,21.94
2019-04-25T09:18:55.089Z,21.12
2019-04-25T09:19:55.052Z,20.24
2019-04-25T09:20:55.044Z,20.73
2019-04-25T09:21:55.027Z,21.02
2019-04-25T09:22:55.019Z,20.60
2019-04-25T09:23:55.027Z,20.29
2019-04-25T09:24:55.007Z,19.59
2019-04-25T09:25:55.022Z,19.28
2019-04-25T09:26:54.979Z,18.30
2019-04-25T09:27:54.968Z,18.09
2019-04-25T09:28:54.964Z,18.19
2019-04-25T09:29:54.953Z,18.30
2019-04-25T09:30:54.956Z,17.92
2019-04-25T09:31:54.966Z,18.21
2019-04-25T09:32:54.921Z,18.40
2019-04-25T09:33:54.911Z,18.29
2019-04-25T09:34:55.533Z,17.32
2019-04-25T09:35:54.905Z,17.72
2019-04-25T09:36:54.895Z,18.80
2019-04-25T09:37:54.886Z,18.83
2019-04-25T09:38:54.878Z,19.26
2019-04-25T09:39:55.834Z,20.45
2019-04-25T09:40:54.851Z,19.86
2019-04-25T09:41:54.842Z,19.26
2019-04-25T09:42:54.836Z,19.63
2019-04-25T09:43:54.938Z,19.22
2019-04-25T09:44:54.826Z,17.07
2019-04-25T09:45:54.801Z,17.07
2019-04-25T09:46:54.788Z,17.58
2019-04-25T09:47:54.786Z,18.50
2019-04-25T09:48:54.778Z,18.80
2019-04-25T09:49:54.788Z,19.10
2019-04-25T09:50:54.755Z,19.20
2019-04-25T09:51:54.745Z,19.38
2019-04-25T09:52:54.741Z,19.37
2019-04-25T09:53:54.731Z,18.37
2019-04-25T09:54:54.747Z,17.40
2019-04-25T09:55:54.730Z,17.21
2019-04-25T09:56:55.291Z,18.62
2019-04-25T09:57:54.698Z,19.63
2019-04-25T09:58:54.683Z,20.32
2019-04-25T09:59:54.676Z,19.65
2019-04-25T10:00:54.659Z,20.14
2019-04-25T10:01:54.652Z,20.51
2019-04-25T10:02:55.529Z,19.80
2019-04-25T10:03:54.646Z,18.91
2019-04-25T10:04:55.166Z,18.71
2019-04-25T10:05:54.647Z,17.43
2019-04-25T10:06:54.620Z,18.10
2019-04-25T10:07:54.601Z,18.42
2019-04-25T10:08:54.601Z,19.62
2019-04-25T10:09:54.777Z,19.42
2019-04-25T10:10:55.474Z,19.01
2019-04-25T10:11:54.825Z,19.42
2019-04-25T10:12:54.882Z,19.81
2019-04-25T10:13:54.538Z,19.21
2019-04-25T10:14:54.538Z,18.62
2019-04-25T10:15:54.680Z,17.07
2019-04-25T10:16:54.523Z,17.72
2019-04-25T10:17:54.514Z,19.04
2019-04-25T10:18:54.494Z,18.79
2019-04-25T10:19:54.476Z,18.21
2019-04-25T10:20:54.531Z,16.76
2019-04-25T10:21:55.231Z,17.86
2019-04-25T10:22:54.458Z,18.02
2019-04-25T10:23:54.445Z,17.38
2019-04-25T10:25:00.258Z,18.33
2019-04-25T10:25:55.443Z,17.71
2019-04-25T10:26:54.783Z,17.68
2019-04-25T10:27:54.420Z,16.98
2019-04-25T10:28:54.407Z,16.76
2019-04-25T10:29:57.065Z,16.46
2019-04-25T10:30:55.591Z,16.85
2019-04-25T10:31:55.757Z,17.94
2019-04-25T10:32:54.753Z,18.05
2019-04-25T10:33:54.586Z,17.65
2019-04-25T10:34:54.370Z,17.85
2019-04-25T10:36:00.579Z,18.66
2019-04-25T10:36:55.331Z,20.47
2019-04-25T10:37:55.020Z,19.38
2019-04-25T10:39:04.071Z,20.46
2019-04-25T10:39:55.712Z,20.15
2019-04-25T10:40:54.308Z,20.85
2019-04-25T10:41:54.298Z,20.95
2019-04-25T10:42:54.285Z,20.56
2019-04-25T10:43:56.020Z,20.37
2019-04-25T10:44:56.579Z,20.46
2019-04-25T10:45:55.125Z,20.34
2019-04-25T10:46:54.641Z,20.26
2019-04-25T10:47:55.254Z,19.41
2019-04-25T10:48:56.107Z,20.40
2019-04-25T10:49:55.441Z,20.90
2019-04-25T10:50:55.733Z,21.38
2019-04-25T10:51:54.202Z,20.40
2019-04-25T10:52:54.344Z,21.09
2019-04-25T10:53:55.095Z,21.48
2019-04-25T10:54:54.339Z,21.29
2019-04-25T10:55:54.135Z,21.90
2019-04-25T10:56:54.116Z,20.39
2019-04-25T10:57:55.079Z,20.17
2019-04-25T10:58:54.959Z,19.75
2019-04-25T11:00:05.411Z,17.50
2019-04-25T11:00:55.095Z,17.52
2019-04-25T11:01:55.115Z,19.08
2019-04-25T11:02:54.071Z,18.21
2019-04-25T11:03:55.621Z,18.49
2019-04-25T11:04:54.506Z,17.31
2019-04-25T11:05:55.788Z,16.85
2019-04-25T11:06:55.109Z,18.70
2019-04-25T11:07:55.730Z,18.21
2019-04-25T11:08:56.526Z,16.03
2019-04-25T11:09:55.129Z,15.62
2019-04-25T11:10:54.937Z,15.82
2019-04-25T11:11:54.019Z,16.22
2019-04-25T11:12:55.109Z,16.99
2019-04-25T11:13:54.531Z,17.38
2019-04-25T11:14:56.101Z,16.20
2019-04-25T11:15:55.860Z,16.09
2019-04-25T11:16:55.221Z,16.07
2019-04-25T11:17:55.010Z,15.21
2019-04-25T11:18:54.864Z,15.70
2019-04-25T11:19:54.321Z,14.46
2019-04-25T11:20:55.028Z,14.17
2019-04-25T11:21:53.933Z,14.46
2019-04-25T11:22:53.904Z,14.06
2019-04-25T11:23:55.350Z,13.87
2019-04-25T11:24:53.870Z,14.84
2019-04-25T11:25:54.248Z,14.66
2019-04-25T11:26:55.185Z,15.05
2019-04-25T11:27:54.190Z,15.23
2019-04-25T11:28:54.473Z,15.22
2019-04-25T11:30:08.188Z,15.31
2019-04-25T11:30:55.602Z,15.03
2019-04-25T11:31:53.801Z,15.53
2019-04-25T11:32:54.724Z,15.53
2019-04-25T11:33:54.524Z,16.22
2019-04-25T11:34:54.901Z,16.81
2019-04-25T11:35:56.337Z,17.31
2019-04-25T11:36:54.536Z,18.19
2019-04-25T11:37:54.800Z,17.41
2019-04-25T11:38:53.815Z,18.19
2019-04-25T11:39:54.964Z,18.18
2019-04-25T11:40:55.134Z,17.39
2019-04-25T11:41:55.524Z,18.15
2019-04-25T11:42:54.607Z,17.34
2019-04-25T11:43:55.247Z,15.27
2019-04-25T11:44:54.480Z,15.27
2019-04-25T11:45:54.104Z,15.85
2019-04-25T11:46:53.653Z,15.87
2019-04-25T11:47:54.403Z,15.87
2019-04-25T11:48:54.803Z,15.75
2019-04-25T11:49:54.645Z,14.97
2019-04-25T11:50:55.767Z,15.18
2019-04-25T11:51:54.463Z,14.78
2019-04-25T11:52:54.743Z,15.08
2019-04-25T11:53:54.570Z,15.00
2019-04-25T11:54:54.821Z,14.98
2019-04-25T11:55:54.652Z,15.15
2019-04-25T11:56:54.734Z,14.07
2019-04-25T11:57:54.951Z,13.46
2019-04-25T11:58:54.993Z,13.06
2019-04-25T11:59:54.571Z,12.38
2019-04-25T12:00:57.634Z,11.30
2019-04-25T12:01:56.084Z,11.58
2019-04-25T12:02:54.941Z,11.20
2019-04-25T12:03:55.758Z,12.26
2019-04-25T12:04:54.890Z,11.76
2019-04-25T12:05:54.039Z,11.46
2019-04-25T12:06:54.268Z,11.75
2019-04-25T12:07:54.278Z,11.46
2019-04-25T12:08:55.238Z,11.46
2019-04-25T12:09:54.485Z,11.25
2019-04-25T12:10:54.802Z,10.87
2019-04-25T12:11:54.470Z,11.07
2019-04-25T12:12:54.057Z,10.97
2019-04-25T12:13:55.257Z,11.65
2019-04-25T12:14:55.278Z,12.43
2019-04-25T12:15:54.853Z,12.18
2019-04-25T12:16:56.139Z,12.88
2019-04-25T12:17:54.749Z,13.08
2019-04-25T12:18:56.101Z,12.98
2019-04-25T12:19:55.007Z,14.36
2019-04-25T12:20:55.431Z,14.69
2019-04-25T12:21:56.196Z,14.89
2019-04-25T12:23:04.861Z,14.50
2019-04-25T12:23:55.318Z,15.50
2019-04-25T12:24:54.675Z,16.31
2019-04-25T12:25:54.380Z,16.51
2019-04-25T12:26:54.881Z,17.19
2019-04-25T12:27:54.471Z,18.29
2019-04-25T12:28:54.761Z,17.62
2019-04-25T12:29:53.296Z,18.51
2019-04-25T12:30:54.998Z,17.93
2019-04-25T12:31:54.814Z,18.62
2019-04-25T12:32:53.848Z,18.64
2019-04-25T12:33:54.817Z,18.56
2019-04-25T12:34:53.701Z,19.66
2019-04-25T12:35:54.140Z,19.10
2019-04-25T12:36:54.477Z,20.59
2019-04-25T12:37:54.003Z,20.10
2019-04-25T12:38:54.567Z,20.32
2019-04-25T12:39:53.852Z,22.30
2019-04-25T12:40:54.362Z,21.12
2019-04-25T12:41:54.454Z,20.75
2019-04-25T12:42:53.143Z,20.17
2019-04-25T12:43:54.356Z,21.18
2019-04-25T12:44:54.615Z,21.49
2019-04-25T12:45:53.117Z,22.00
2019-04-25T12:46:54.585Z,22.11
2019-04-25T12:47:57.310Z,23.11
2019-04-25T12:48:53.669Z,23.01
2019-04-25T12:49:54.742Z,23.59
2019-04-25T12:50:54.283Z,23.39
2019-04-25T12:51:53.049Z,23.58